createdAt,value
2023-03-29T00:00:07.194Z,53.22
2023-03-29T00:01:07.192Z,56.91
2023-03-29T00:02:07.187Z,54.19
2023-03-29T00:03:07.391Z,48.76
2023-03-29T00:04:07.272Z,48.77
2023-03-29T00:05:07.154Z,47.56
2023-03-29T00:06:07.151Z,52.34
2023-03-29T00:07:07.140Z,53.33
2023-03-29T00:08:07.138Z,54.43
2023-03-29T00:09:07.120Z,55.89
2023-03-29T00:10:07.129Z,51.61
2023-03-29T00:11:07.127Z,46.86
2023-03-29T00:12:07.127Z,49.00
2023-03-29T00:13:07.102Z,49.03
2023-03-29T00:14:07.091Z,55.34
2023-03-29T00:15:07.090Z,48.81
2023-03-29T00:16:07.090Z,54.60
2023-03-29T00:17:07.160Z,55.66
2023-03-29T00:18:07.143Z,47.71
2023-03-29T00:19:07.048Z,47.45
2023-03-29T00:20:07.061Z,53.14
2023-03-29T00:21:07.159Z,56.31
2023-03-29T00:22:07.039Z,54.09
2023-03-29T00:23:07.036Z,52.12
2023-03-29T00:24:07.045Z,51.74
2023-03-29T00:25:07.015Z,53.80
2023-03-29T00:26:08.090Z,52.24
2023-03-29T00:27:08.020Z,51.22
2023-03-29T00:28:06.999Z,54.66
2023-03-29T00:29:07.004Z,51.37
2023-03-29T00:30:06.999Z,49.58
2023-03-29T00:31:07.039Z,54.97
2023-03-29T00:32:06.972Z,52.43
2023-03-29T00:33:07.003Z,51.69
2023-03-29T00:34:06.968Z,50.40
2023-03-29T00:35:06.941Z,50.49
2023-03-29T00:36:07.058Z,54.20
2023-03-29T00:37:06.971Z,49.70
2023-03-29T00:38:06.926Z,49.66
2023-03-29T00:39:06.912Z,52.51
2023-03-29T00:40:06.911Z,56.27
2023-03-29T00:41:06.958Z,54.92
2023-03-29T00:42:06.910Z,53.98
2023-03-29T00:43:07.004Z,50.50
2023-03-29T00:44:06.909Z,52.76
2023-03-29T00:45:06.889Z,51.97
2023-03-29T00:46:06.893Z,49.49
2023-03-29T00:47:06.880Z,47.30
2023-03-29T00:48:06.902Z,50.61
2023-03-29T00:49:06.861Z,51.43
2023-03-29T00:50:06.870Z,55.47
2023-03-29T00:51:09.794Z,51.69
2023-03-29T00:52:06.858Z,55.90
2023-03-29T00:53:06.821Z,52.72
2023-03-29T00:54:06.816Z,48.82
2023-03-29T00:55:06.852Z,54.32
2023-03-29T00:56:06.808Z,50.54
2023-03-29T00:57:07.051Z,53.61
2023-03-29T00:58:06.837Z,47.31
2023-03-29T00:59:06.792Z,51.78
2023-03-29T01:00:06.820Z,49.37
2023-03-29T01:01:06.779Z,48.10
2023-03-29T01:02:06.867Z,49.33
2023-03-29T01:03:06.837Z,55.15
2023-03-29T01:04:06.798Z,57.41
2023-03-29T01:05:06.751Z,57.44
2023-03-29T01:06:06.741Z,54.36
2023-03-29T01:07:06.865Z,51.83
2023-03-29T01:08:06.739Z,50.19
2023-03-29T01:09:06.731Z,53.80
2023-03-29T01:10:06.715Z,53.93
2023-03-29T01:11:06.715Z,53.16
2023-03-29T01:12:06.732Z,54.36
2023-03-29T01:13:06.714Z,54.31
2023-03-29T01:14:06.690Z,54.73
2023-03-29T01:15:06.684Z,52.20
2023-03-29T01:16:06.700Z,56.76
2023-03-29T01:17:06.685Z,54.16
2023-03-29T01:18:06.732Z,53.80
2023-03-29T01:19:06.658Z,53.80
2023-03-29T01:20:07.662Z,53.79
2023-03-29T01:21:06.667Z,55.26
2023-03-29T01:22:06.638Z,52.00
2023-03-29T01:23:06.670Z,49.58
2023-03-29T01:24:06.705Z,51.78
2023-03-29T01:25:06.624Z,46.97
2023-03-29T01:26:06.615Z,50.53
2023-03-29T01:27:06.608Z,55.70
2023-03-29T01:28:06.613Z,54.81
2023-03-29T01:29:06.660Z,55.53
2023-03-29T01:30:06.596Z,54.22
2023-03-29T01:31:06.586Z,51.71
2023-03-29T01:32:06.627Z,51.05
2023-03-29T01:33:06.638Z,53.84
2023-03-29T01:34:06.577Z,49.03
2023-03-29T01:35:06.569Z,49.16
2023-03-29T01:36:06.572Z,54.25
2023-03-29T01:37:06.547Z,56.40
2023-03-29T01:38:06.548Z,49.90
2023-03-29T01:39:06.531Z,51.28
2023-03-29T01:40:06.523Z,55.12
2023-03-29T01:41:06.512Z,53.56
2023-03-29T01:42:06.646Z,48.82
2023-03-29T01:43:06.535Z,56.00
2023-03-29T01:44:06.511Z,57.33
2023-03-29T01:45:06.503Z,55.61
2023-03-29T01:46:06.510Z,55.83
2023-03-29T01:47:06.475Z,55.46
2023-03-29T01:48:06.528Z,55.22
2023-03-29T01:49:06.486Z,55.63
2023-03-29T01:50:06.468Z,54.08
2023-03-29T01:51:06.459Z,55.15
2023-03-29T01:52:06.440Z,53.91
2023-03-29T01:53:06.452Z,54.97
2023-03-29T01:54:06.441Z,53.62
2023-03-29T01:55:06.430Z,50.55
2023-03-29T01:56:06.448Z,54.78
2023-03-29T01:57:06.462Z,53.84
2023-03-29T01:58:06.431Z,54.09
2023-03-29T01:59:06.429Z,56.82
2023-03-29T02:00:06.393Z,52.52
2023-03-29T02:01:06.401Z,51.98
2023-03-29T02:02:06.384Z,50.68
2023-03-29T02:03:06.474Z,56.72
2023-03-29T02:04:06.391Z,54.15
2023-03-29T02:05:06.368Z,52.61
2023-03-29T02:06:07.366Z,55.88
2023-03-29T02:07:06.366Z,55.20
2023-03-29T02:08:06.346Z,53.18
2023-03-29T02:09:06.365Z,47.72
2023-03-29T02:10:06.331Z,48.65
2023-03-29T02:11:06.318Z,54.70
2023-03-29T02:12:06.310Z,55.98
2023-03-29T02:13:07.314Z,54.55
2023-03-29T02:14:06.321Z,57.46
2023-03-29T02:15:06.310Z,56.61
2023-03-29T02:16:06.320Z,53.56
2023-03-29T02:17:06.295Z,49.79
2023-03-29T02:18:06.384Z,53.33
2023-03-29T02:19:06.274Z,55.19
2023-03-29T02:20:06.337Z,52.91
2023-03-29T02:21:06.261Z,57.56
2023-03-29T02:22:06.251Z,55.65
2023-03-29T02:23:06.247Z,54.29
2023-03-29T02:24:06.236Z,54.27
2023-03-29T02:25:06.260Z,52.99
2023-03-29T02:26:06.222Z,53.17
2023-03-29T02:27:06.196Z,55.23
2023-03-29T02:28:07.214Z,56.91
2023-03-29T02:29:06.209Z,53.64
2023-03-29T02:30:06.213Z,51.18
2023-03-29T02:31:06.242Z,56.51
2023-03-29T02:32:06.185Z,51.25
2023-03-29T02:33:06.265Z,52.63
2023-03-29T02:34:06.177Z,52.13
2023-03-29T02:35:06.171Z,56.04
2023-03-29T02:36:06.193Z,56.56
2023-03-29T02:37:06.149Z,55.53
2023-03-29T02:38:06.150Z,51.70
2023-03-29T02:39:06.304Z,54.47
2023-03-29T02:40:06.177Z,58.41
2023-03-29T02:41:06.126Z,57.41
2023-03-29T02:42:06.122Z,55.38
2023-03-29T02:43:06.119Z,55.17
2023-03-29T02:44:06.134Z,52.91
2023-03-29T02:45:06.098Z,54.49
2023-03-29T02:46:06.138Z,53.91
2023-03-29T02:47:06.088Z,55.73
2023-03-29T02:48:06.142Z,56.84
2023-03-29T02:49:06.066Z,55.02
2023-03-29T02:50:06.074Z,53.92
2023-03-29T02:51:06.071Z,59.56
2023-03-29T02:52:06.052Z,56.79
2023-03-29T02:53:06.055Z,56.37
2023-03-29T02:54:06.046Z,55.94
2023-03-29T02:55:06.043Z,56.86
2023-03-29T02:56:06.023Z,57.45
2023-03-29T02:57:06.076Z,52.28
2023-03-29T02:58:06.018Z,58.56
2023-03-29T02:59:07.006Z,56.37
2023-03-29T03:00:06.020Z,56.14
2023-03-29T03:01:05.991Z,54.73
2023-03-29T03:02:06.011Z,53.89
2023-03-29T03:03:06.074Z,57.14
2023-03-29T03:04:06.009Z,58.15
2023-03-29T03:05:05.965Z,59.07
2023-03-29T03:06:06.966Z,57.76
2023-03-29T03:07:05.977Z,56.03
2023-03-29T03:08:05.959Z,57.71
2023-03-29T03:09:05.948Z,56.37
2023-03-29T03:10:05.974Z,57.43
2023-03-29T03:11:05.979Z,56.05
2023-03-29T03:12:05.944Z,58.12
2023-03-29T03:13:05.908Z,56.16
2023-03-29T03:14:05.910Z,56.18
2023-03-29T03:15:05.907Z,57.87
2023-03-29T03:16:05.916Z,56.53
2023-03-29T03:17:05.882Z,57.63
2023-03-29T03:18:05.977Z,57.69
2023-03-29T03:19:05.896Z,58.08
2023-03-29T03:20:05.867Z,57.14
2023-03-29T03:21:05.857Z,57.25
2023-03-29T03:22:05.889Z,56.27
2023-03-29T03:23:05.845Z,57.04
2023-03-29T03:24:05.863Z,57.40
2023-03-29T03:25:05.829Z,57.38
2023-03-29T03:26:05.814Z,59.48
2023-03-29T03:27:05.810Z,59.94
2023-03-29T03:28:05.808Z,56.87
2023-03-29T03:29:06.021Z,57.98
2023-03-29T03:30:05.809Z,57.48
2023-03-29T03:31:05.809Z,57.51
2023-03-29T03:32:05.861Z,56.80
2023-03-29T03:33:05.828Z,56.88
2023-03-29T03:34:05.808Z,57.28
2023-03-29T03:35:05.769Z,58.16
2023-03-29T03:36:05.815Z,57.18
2023-03-29T03:37:05.786Z,57.72
2023-03-29T03:38:05.744Z,57.32
2023-03-29T03:39:05.771Z,58.75
2023-03-29T03:40:05.743Z,58.96
2023-03-29T03:41:06.087Z,58.41
2023-03-29T03:42:08.269Z,58.07
2023-03-29T03:43:06.720Z,58.73
2023-03-29T03:44:05.717Z,57.96
2023-03-29T03:45:05.705Z,58.16
2023-03-29T03:46:05.788Z,58.00
2023-03-29T03:47:05.721Z,57.39
2023-03-29T03:48:05.735Z,57.81
2023-03-29T03:49:05.715Z,58.52
2023-03-29T03:50:05.774Z,57.84
2023-03-29T03:51:05.681Z,58.35
2023-03-29T03:52:05.664Z,58.71
2023-03-29T03:53:05.666Z,57.99
2023-03-29T03:54:05.651Z,57.40
2023-03-29T03:55:05.658Z,59.45
2023-03-29T03:56:05.651Z,57.61
2023-03-29T03:57:05.668Z,57.98
2023-03-29T03:58:05.660Z,58.12
2023-03-29T03:59:05.652Z,58.77
2023-03-29T04:00:05.629Z,59.26
2023-03-29T04:01:05.625Z,57.54
2023-03-29T04:02:05.667Z,56.77
2023-03-29T04:03:05.761Z,58.02
2023-03-29T04:04:05.593Z,57.67
2023-03-29T04:05:05.575Z,58.18
2023-03-29T04:06:05.631Z,57.77
2023-03-29T04:07:05.562Z,58.23
2023-03-29T04:08:05.595Z,60.87
2023-03-29T04:09:05.549Z,60.13
2023-03-29T04:10:05.542Z,60.08
2023-03-29T04:11:05.542Z,59.31
2023-03-29T04:12:05.530Z,60.60
2023-03-29T04:13:05.527Z,60.29
2023-03-29T04:14:05.512Z,59.78
2023-03-29T04:15:05.503Z,59.74
2023-03-29T04:16:05.559Z,60.25
2023-03-29T04:17:05.489Z,60.34
2023-03-29T04:18:05.575Z,61.11
2023-03-29T04:19:05.513Z,60.98
2023-03-29T04:20:05.457Z,60.83
2023-03-29T04:21:05.480Z,60.92
2023-03-29T04:22:05.498Z,60.82
2023-03-29T04:23:05.464Z,60.52
2023-03-29T04:24:05.449Z,60.57
2023-03-29T04:25:05.453Z,61.37
2023-03-29T04:26:05.471Z,60.45
2023-03-29T04:27:05.435Z,60.81
2023-03-29T04:28:05.426Z,60.09
2023-03-29T04:29:05.436Z,60.54
2023-03-29T04:30:05.411Z,60.74
2023-03-29T04:31:05.674Z,60.59
2023-03-29T04:32:05.436Z,60.18
2023-03-29T04:33:05.486Z,60.17
2023-03-29T04:34:05.421Z,60.11
2023-03-29T04:35:05.452Z,62.95
2023-03-29T04:36:05.392Z,60.72
2023-03-29T04:37:05.424Z,60.72
2023-03-29T04:38:05.379Z,60.79
2023-03-29T04:39:05.351Z,61.03
2023-03-29T04:40:05.698Z,61.51
2023-03-29T04:41:05.339Z,61.92
2023-03-29T04:42:05.377Z,63.08
2023-03-29T04:43:05.366Z,62.39
2023-03-29T04:44:05.343Z,63.19
2023-03-29T04:45:05.454Z,62.55
2023-03-29T04:46:05.372Z,60.87
2023-03-29T04:47:05.310Z,61.51
2023-03-29T04:48:05.344Z,61.47
2023-03-29T04:49:05.292Z,61.93
2023-03-29T04:50:05.292Z,61.78
2023-03-29T04:51:05.274Z,60.86
2023-03-29T04:52:05.281Z,62.41
2023-03-29T04:53:05.283Z,62.01
2023-03-29T04:54:05.263Z,61.01
2023-03-29T04:55:05.288Z,62.35
2023-03-29T04:56:05.270Z,61.12
2023-03-29T04:57:05.307Z,60.31
2023-03-29T04:58:05.231Z,61.28
2023-03-29T04:59:05.257Z,62.15
2023-03-29T05:00:05.229Z,61.89
2023-03-29T05:01:05.257Z,61.46
2023-03-29T05:02:05.260Z,61.25
2023-03-29T05:03:05.221Z,61.28
2023-03-29T05:04:05.314Z,59.68
2023-03-29T05:05:05.187Z,59.55
2023-03-29T05:06:05.184Z,61.99
2023-03-29T05:07:05.178Z,60.86
2023-03-29T05:08:05.167Z,60.80
2023-03-29T05:09:05.163Z,59.78
2023-03-29T05:10:05.170Z,59.91
2023-03-29T05:11:05.163Z,59.92
2023-03-29T05:12:05.156Z,58.74
2023-03-29T05:13:05.135Z,59.18
2023-03-29T05:14:05.130Z,59.17
2023-03-29T05:15:05.128Z,60.68
2023-03-29T05:16:05.198Z,60.57
2023-03-29T05:17:05.168Z,62.29
2023-03-29T05:18:05.169Z,60.61
2023-03-29T05:19:05.098Z,60.84
2023-03-29T05:20:05.113Z,61.87
2023-03-29T05:21:05.253Z,60.85
2023-03-29T05:22:05.107Z,61.43
2023-03-29T05:23:05.135Z,60.68
2023-03-29T05:24:05.086Z,60.72
2023-03-29T05:25:05.053Z,60.80
2023-03-29T05:26:05.050Z,60.74
2023-03-29T05:27:05.123Z,60.33
2023-03-29T05:28:05.037Z,60.51
2023-03-29T05:29:05.100Z,61.91
2023-03-29T05:30:05.052Z,61.21
2023-03-29T05:31:05.263Z,60.77
2023-03-29T05:32:05.081Z,61.08
2023-03-29T05:33:05.024Z,61.72
2023-03-29T05:34:04.999Z,62.24
2023-03-29T05:35:05.053Z,61.86
2023-03-29T05:36:05.045Z,61.72
2023-03-29T05:37:04.975Z,60.62
2023-03-29T05:38:05.005Z,61.65
2023-03-29T05:39:04.960Z,61.92
2023-03-29T05:40:06.082Z,61.21
2023-03-29T05:41:04.952Z,61.95
2023-03-29T05:42:04.986Z,62.29
2023-03-29T05:43:04.951Z,61.79
2023-03-29T05:44:04.931Z,61.08
2023-03-29T05:45:04.937Z,61.18
2023-03-29T05:46:04.941Z,61.32
2023-03-29T05:47:04.919Z,60.75
2023-03-29T05:48:04.950Z,60.15
2023-03-29T05:49:04.914Z,60.80
2023-03-29T05:50:04.930Z,60.51
2023-03-29T05:51:05.091Z,60.09
2023-03-29T05:52:04.877Z,61.64
2023-03-29T05:53:04.877Z,61.44
2023-03-29T05:54:04.877Z,60.37
2023-03-29T05:55:04.852Z,63.86
2023-03-29T05:56:04.846Z,60.11
2023-03-29T05:57:04.869Z,60.32
2023-03-29T05:58:04.837Z,61.02
2023-03-29T05:59:04.858Z,60.95
2023-03-29T06:00:04.820Z,60.80
2023-03-29T06:01:04.916Z,60.02
2023-03-29T06:02:04.986Z,59.38
2023-03-29T06:03:14.098Z,60.20
2023-03-29T06:04:06.954Z,58.71
2023-03-29T06:05:04.821Z,59.73
2023-03-29T06:06:04.812Z,60.00
2023-03-29T06:07:04.776Z,59.65
2023-03-29T06:08:04.771Z,58.52
2023-03-29T06:09:04.768Z,58.69
2023-03-29T06:10:04.790Z,63.22
2023-03-29T06:11:05.396Z,57.92
2023-03-29T06:12:05.750Z,57.80
2023-03-29T06:13:04.741Z,57.36
2023-03-29T06:14:04.750Z,57.28
2023-03-29T06:15:04.753Z,56.93
2023-03-29T06:16:04.734Z,57.25
2023-03-29T06:17:04.756Z,57.64
2023-03-29T06:18:04.785Z,58.41
2023-03-29T06:19:04.704Z,57.36
2023-03-29T06:20:04.715Z,56.87
2023-03-29T06:21:05.020Z,57.23
2023-03-29T06:22:04.683Z,56.77
2023-03-29T06:23:05.686Z,56.91
2023-03-29T06:24:04.674Z,56.99
2023-03-29T06:25:04.668Z,57.88
2023-03-29T06:26:04.676Z,58.33
2023-03-29T06:27:04.651Z,59.70
2023-03-29T06:28:04.640Z,59.29
2023-03-29T06:29:04.642Z,58.85
2023-03-29T06:30:04.635Z,58.48
2023-03-29T06:31:04.799Z,58.99
2023-03-29T06:32:04.636Z,58.21
2023-03-29T06:33:04.678Z,58.49
2023-03-29T06:34:04.648Z,58.13
2023-03-29T06:35:04.643Z,58.25
2023-03-29T06:36:04.649Z,58.21
2023-03-29T06:37:04.617Z,59.58
2023-03-29T06:38:04.622Z,60.13
2023-03-29T06:39:04.623Z,57.96
2023-03-29T06:40:04.605Z,58.18
2023-03-29T06:41:04.687Z,58.57
2023-03-29T06:42:12.990Z,59.35
2023-03-29T06:43:06.544Z,59.61
2023-03-29T06:44:04.575Z,59.10
2023-03-29T06:45:04.598Z,59.67
2023-03-29T06:46:04.574Z,60.18
2023-03-29T06:47:04.536Z,58.91
2023-03-29T06:48:04.648Z,60.06
2023-03-29T06:49:04.518Z,60.09
2023-03-29T06:50:04.505Z,58.29
2023-03-29T06:51:04.689Z,59.23
2023-03-29T06:52:04.502Z,59.03
2023-03-29T06:53:04.532Z,58.66
2023-03-29T06:54:04.483Z,57.73
2023-03-29T06:55:04.476Z,58.26
2023-03-29T06:56:04.479Z,60.33
2023-03-29T06:57:04.500Z,60.06
2023-03-29T06:58:04.488Z,60.67
2023-03-29T06:59:04.643Z,58.97
2023-03-29T07:00:04.436Z,59.41
2023-03-29T07:01:04.862Z,60.15
2023-03-29T07:02:04.488Z,58.81
2023-03-29T07:03:04.469Z,57.34
2023-03-29T07:04:04.493Z,56.22
2023-03-29T07:05:04.416Z,59.61
2023-03-29T07:06:04.463Z,56.03
2023-03-29T07:07:04.399Z,57.93
2023-03-29T07:08:04.403Z,57.91
2023-03-29T07:09:04.398Z,59.22
2023-03-29T07:10:04.405Z,58.27
2023-03-29T07:11:05.534Z,58.63
2023-03-29T07:12:04.361Z,58.38
2023-03-29T07:13:04.468Z,58.40
2023-03-29T07:14:04.381Z,59.61
2023-03-29T07:15:04.341Z,59.15
2023-03-29T07:16:04.373Z,59.81
2023-03-29T07:17:04.399Z,58.24
2023-03-29T07:18:04.374Z,58.10
2023-03-29T07:19:04.331Z,58.43
2023-03-29T07:20:04.332Z,58.59
2023-03-29T07:21:04.606Z,58.33
2023-03-29T07:22:04.310Z,58.86
2023-03-29T07:23:04.294Z,59.06
2023-03-29T07:24:04.321Z,59.67
2023-03-29T07:25:04.300Z,58.99
2023-03-29T07:26:04.276Z,58.19
2023-03-29T07:27:04.929Z,60.24
2023-03-29T07:28:05.267Z,60.16
2023-03-29T07:29:04.317Z,60.46
2023-03-29T07:30:04.293Z,59.63
2023-03-29T07:31:04.422Z,60.72
2023-03-29T07:32:04.234Z,61.82
2023-03-29T07:33:04.295Z,61.54
2023-03-29T07:34:04.227Z,58.85
2023-03-29T07:35:04.504Z,58.61
2023-03-29T07:36:04.302Z,60.18
2023-03-29T07:37:04.205Z,59.31
2023-03-29T07:38:04.235Z,59.49
2023-03-29T07:39:04.213Z,60.09
2023-03-29T07:40:04.210Z,59.22
2023-03-29T07:41:04.445Z,59.86
2023-03-29T07:42:04.170Z,59.16
2023-03-29T07:43:04.168Z,59.61
2023-03-29T07:44:04.495Z,58.67
2023-03-29T07:45:04.182Z,59.81
2023-03-29T07:46:04.217Z,60.54
2023-03-29T07:47:04.134Z,60.28
2023-03-29T07:48:04.208Z,60.88
2023-03-29T07:49:04.130Z,61.27
2023-03-29T07:50:04.111Z,60.99
2023-03-29T07:51:04.289Z,60.21
2023-03-29T07:52:04.116Z,60.04
2023-03-29T07:53:04.113Z,61.88
2023-03-29T07:54:04.102Z,60.39
2023-03-29T07:55:04.096Z,59.97
2023-03-29T07:56:04.105Z,61.59
2023-03-29T07:57:04.196Z,60.35
2023-03-29T07:58:04.079Z,59.35
2023-03-29T07:59:04.076Z,58.86
2023-03-29T08:00:04.066Z,59.77
2023-03-29T08:01:04.199Z,59.73
2023-03-29T08:02:04.070Z,61.72
2023-03-29T08:03:04.224Z,61.65
2023-03-29T08:04:04.154Z,61.02
2023-03-29T08:05:04.049Z,59.01
2023-03-29T08:06:04.023Z,59.99
2023-03-29T08:07:04.017Z,59.78
2023-03-29T08:08:04.011Z,60.38
2023-03-29T08:09:04.009Z,60.38
2023-03-29T08:10:03.988Z,58.44
2023-03-29T08:11:04.135Z,60.06
2023-03-29T08:12:03.975Z,59.93
2023-03-29T08:13:03.978Z,59.90
2023-03-29T08:14:03.969Z,60.12
2023-03-29T08:15:03.960Z,61.57
2023-03-29T08:16:03.943Z,61.24
2023-03-29T08:17:05.280Z,61.66
2023-03-29T08:18:03.958Z,63.11
2023-03-29T08:19:03.941Z,59.35
2023-03-29T08:20:03.931Z,58.48
2023-03-29T08:21:04.186Z,60.33
2023-03-29T08:22:03.936Z,60.26
2023-03-29T08:23:03.921Z,59.90
2023-03-29T08:24:03.905Z,60.31
2023-03-29T08:25:03.911Z,61.37
2023-03-29T08:26:03.886Z,61.44
2023-03-29T08:27:03.901Z,60.46
2023-03-29T08:28:03.875Z,60.02
2023-03-29T08:29:03.862Z,61.08
2023-03-29T08:30:03.861Z,61.07
2023-03-29T08:31:04.210Z,58.34
2023-03-29T08:32:03.841Z,60.47
2023-03-29T08:33:03.914Z,59.50
2023-03-29T08:34:03.846Z,59.41
2023-03-29T08:35:03.860Z,59.58
2023-03-29T08:36:03.877Z,57.29
2023-03-29T08:37:03.821Z,59.35
2023-03-29T08:38:03.805Z,60.29
2023-03-29T08:39:03.800Z,60.53
2023-03-29T08:40:03.800Z,59.27
2023-03-29T08:41:03.923Z,61.51
2023-03-29T08:42:03.770Z,61.01
2023-03-29T08:43:03.778Z,61.20
2023-03-29T08:44:03.751Z,58.70
2023-03-29T08:45:03.842Z,59.48
2023-03-29T08:46:03.853Z,60.45
2023-03-29T08:47:03.775Z,59.47
2023-03-29T08:48:03.809Z,60.25
2023-03-29T08:49:03.748Z,61.96
2023-03-29T08:50:03.713Z,60.24
2023-03-29T08:51:03.863Z,58.88
2023-03-29T08:52:03.707Z,59.81
2023-03-29T08:53:03.750Z,60.14
2023-03-29T08:54:03.697Z,60.62
2023-03-29T08:55:03.682Z,59.47
2023-03-29T08:56:03.717Z,60.92
2023-03-29T08:57:03.730Z,60.91
2023-03-29T08:58:03.689Z,62.30
2023-03-29T08:59:03.661Z,60.88
2023-03-29T09:00:03.652Z,60.44
2023-03-29T09:01:03.870Z,62.45
2023-03-29T09:02:03.673Z,61.59
2023-03-29T09:03:03.681Z,61.32
2023-03-29T09:04:03.804Z,60.86
2023-03-29T09:05:03.632Z,60.86
2023-03-29T09:06:03.637Z,60.50
2023-03-29T09:07:03.606Z,62.73
2023-03-29T09:08:03.596Z,61.15
2023-03-29T09:09:03.577Z,60.09
2023-03-29T09:10:03.598Z,60.37
2023-03-29T09:11:03.781Z,59.95
2023-03-29T09:12:03.622Z,61.21
2023-03-29T09:13:03.575Z,60.51
2023-03-29T09:14:03.541Z,59.03
2023-03-29T09:15:03.536Z,59.49
2023-03-29T09:16:03.574Z,61.35
2023-03-29T09:17:03.570Z,59.73
2023-03-29T09:18:03.663Z,59.41
2023-03-29T09:19:03.533Z,61.61
2023-03-29T09:20:03.498Z,59.71
2023-03-29T09:21:03.721Z,67.23
2023-03-29T09:22:03.524Z,60.70
2023-03-29T09:23:03.498Z,60.37
2023-03-29T09:24:03.487Z,61.85
2023-03-29T09:25:03.504Z,60.67
2023-03-29T09:26:03.473Z,61.24
2023-03-29T09:27:03.481Z,61.80
2023-03-29T09:28:03.442Z,60.25
2023-03-29T09:29:03.435Z,60.50
2023-03-29T09:30:03.440Z,60.52
2023-03-29T09:31:03.700Z,60.37
2023-03-29T09:32:03.509Z,62.04
2023-03-29T09:33:03.455Z,59.22
2023-03-29T09:34:03.467Z,60.97
2023-03-29T09:35:03.459Z,60.19
2023-03-29T09:36:03.521Z,59.88
2023-03-29T09:37:03.398Z,60.18
2023-03-29T09:38:03.387Z,60.31
2023-03-29T09:39:03.422Z,59.21
2023-03-29T09:40:05.093Z,60.87
2023-03-29T09:41:04.517Z,60.58
2023-03-29T09:42:03.363Z,59.08
2023-03-29T09:43:03.358Z,59.52
2023-03-29T09:44:03.367Z,60.85
2023-03-29T09:45:03.395Z,59.95
2023-03-29T09:46:03.444Z,59.95
2023-03-29T09:47:03.346Z,60.32
2023-03-29T09:48:03.358Z,61.44
2023-03-29T09:49:03.346Z,60.80
2023-03-29T09:50:03.316Z,58.87
2023-03-29T09:51:03.586Z,59.34
2023-03-29T09:52:03.290Z,59.50
2023-03-29T09:53:03.303Z,60.52
2023-03-29T09:54:03.286Z,57.91
2023-03-29T09:55:03.273Z,58.60
2023-03-29T09:56:03.315Z,60.39
2023-03-29T09:57:03.274Z,60.89
2023-03-29T09:58:03.279Z,61.72
2023-03-29T09:59:03.283Z,59.49
2023-03-29T10:00:03.242Z,60.56
2023-03-29T10:01:03.509Z,61.44
2023-03-29T10:02:03.243Z,60.84
2023-03-29T10:03:03.329Z,60.16
2023-03-29T10:04:03.311Z,61.82
2023-03-29T10:05:03.210Z,61.69
2023-03-29T10:06:03.209Z,60.67
2023-03-29T10:07:03.260Z,60.92
2023-03-29T10:08:03.204Z,59.68
2023-03-29T10:09:04.189Z,60.70
2023-03-29T10:10:03.193Z,59.26
2023-03-29T10:11:03.442Z,60.84
2023-03-29T10:12:03.184Z,59.30
2023-03-29T10:13:03.159Z,59.30
2023-03-29T10:14:03.162Z,60.92
2023-03-29T10:15:03.163Z,61.37
2023-03-29T10:16:03.197Z,59.18
2023-03-29T10:17:03.162Z,59.84
2023-03-29T10:18:03.294Z,59.43
2023-03-29T10:19:03.126Z,60.58
2023-03-29T10:20:04.354Z,60.49
2023-03-29T10:21:04.325Z,61.26
2023-03-29T10:22:04.125Z,61.61
2023-03-29T10:23:03.102Z,61.47
2023-03-29T10:24:03.087Z,61.04
2023-03-29T10:25:03.086Z,60.99
2023-03-29T10:26:03.067Z,61.54
2023-03-29T10:27:03.160Z,60.05
2023-03-29T10:28:03.060Z,59.66
2023-03-29T10:29:03.053Z,60.47
2023-03-29T10:30:03.055Z,60.21
2023-03-29T10:31:03.276Z,59.62
2023-03-29T10:32:03.076Z,59.54
2023-03-29T10:33:03.146Z,59.31
2023-03-29T10:34:03.019Z,59.65
2023-03-29T10:35:03.011Z,60.32
2023-03-29T10:36:03.064Z,59.13
2023-03-29T10:37:03.000Z,58.12
2023-03-29T10:38:03.071Z,59.19
2023-03-29T10:39:05.702Z,59.11
2023-03-29T10:40:03.988Z,60.31
2023-03-29T10:41:03.125Z,59.25
2023-03-29T10:42:02.979Z,62.91
2023-03-29T10:43:03.186Z,61.16
2023-03-29T10:44:02.958Z,59.73
2023-03-29T10:45:02.962Z,58.53
2023-03-29T10:46:03.008Z,60.21
2023-03-29T10:47:02.944Z,59.60
2023-03-29T10:48:02.970Z,60.76
2023-03-29T10:49:02.964Z,60.32
2023-03-29T10:50:02.947Z,60.71
2023-03-29T10:51:03.191Z,59.13
2023-03-29T10:52:02.945Z,59.67
2023-03-29T10:53:02.900Z,59.26
2023-03-29T10:54:02.900Z,59.51
2023-03-29T10:55:02.881Z,59.05
2023-03-29T10:56:02.908Z,58.35
2023-03-29T10:57:03.508Z,59.11
2023-03-29T10:58:02.889Z,57.98
2023-03-29T10:59:02.889Z,59.58
2023-03-29T11:00:02.865Z,59.01
2023-03-29T11:01:03.194Z,59.69
2023-03-29T11:02:02.947Z,59.57
2023-03-29T11:03:02.964Z,58.96
2023-03-29T11:04:02.919Z,58.82
2023-03-29T11:05:02.832Z,59.28
2023-03-29T11:06:02.826Z,58.06
2023-03-29T11:07:02.813Z,59.65
2023-03-29T11:08:02.809Z,59.99
2023-03-29T11:09:02.805Z,60.62
2023-03-29T11:10:02.800Z,58.47
2023-03-29T11:11:02.912Z,58.81
2023-03-29T11:12:14.979Z,60.37
2023-03-29T11:13:04.793Z,58.98
2023-03-29T11:14:02.769Z,58.71
2023-03-29T11:15:02.755Z,60.32
2023-03-29T11:16:02.853Z,60.98
2023-03-29T11:17:02.740Z,59.84
2023-03-29T11:18:02.767Z,60.56
2023-03-29T11:19:02.740Z,58.72
2023-03-29T11:20:05.082Z,60.40
2023-03-29T11:21:06.821Z,60.37
2023-03-29T11:22:03.730Z,58.55
2023-03-29T11:23:02.716Z,59.60
2023-03-29T11:24:02.712Z,58.39
2023-03-29T11:25:02.961Z,60.49
2023-03-29T11:26:02.719Z,61.00
2023-03-29T11:27:02.688Z,60.02
2023-03-29T11:28:02.682Z,58.51
2023-03-29T11:29:02.677Z,57.97
2023-03-29T11:30:02.701Z,59.50
2023-03-29T11:31:02.986Z,59.04
2023-03-29T11:32:02.716Z,59.30
2023-03-29T11:33:02.742Z,57.42
2023-03-29T11:34:02.672Z,59.36
2023-03-29T11:35:02.664Z,59.61
2023-03-29T11:36:02.643Z,61.49
2023-03-29T11:37:02.632Z,60.46
2023-03-29T11:38:02.621Z,60.70
2023-03-29T11:39:02.613Z,61.79
2023-03-29T11:40:02.647Z,60.91
2023-03-29T11:41:02.857Z,60.81
2023-03-29T11:42:03.602Z,60.00
2023-03-29T11:43:02.587Z,60.36
2023-03-29T11:44:02.580Z,61.22
2023-03-29T11:45:02.581Z,59.70
2023-03-29T11:46:02.598Z,61.58
2023-03-29T11:47:02.616Z,60.66
2023-03-29T11:48:02.577Z,58.80
2023-03-29T11:49:03.549Z,59.15
2023-03-29T11:50:02.560Z,60.80
2023-03-29T11:51:02.722Z,60.67
2023-03-29T11:52:02.534Z,59.62
2023-03-29T11:53:02.533Z,60.03
2023-03-29T11:54:02.533Z,60.16
2023-03-29T11:55:02.522Z,60.33
2023-03-29T11:56:02.528Z,59.43
2023-03-29T11:57:02.542Z,60.56
2023-03-29T11:58:02.497Z,59.29
2023-03-29T11:59:02.492Z,60.65
2023-03-29T12:00:02.487Z,60.11
2023-03-29T12:01:02.730Z,60.41
2023-03-29T12:02:02.605Z,58.81
2023-03-29T12:03:02.520Z,60.41
2023-03-29T12:04:02.589Z,59.27
2023-03-29T12:05:02.452Z,60.42
2023-03-29T12:06:02.433Z,61.90
2023-03-29T12:07:02.420Z,59.36
2023-03-29T12:08:02.431Z,59.88
2023-03-29T12:09:02.421Z,58.95
2023-03-29T12:10:02.405Z,58.59
2023-03-29T12:11:02.511Z,60.34
2023-03-29T12:12:02.397Z,60.34
2023-03-29T12:13:02.384Z,60.49
2023-03-29T12:14:02.429Z,60.42
2023-03-29T12:15:02.398Z,59.20
2023-03-29T12:16:02.371Z,61.24
2023-03-29T12:17:02.417Z,61.26
2023-03-29T12:18:02.416Z,59.90
2023-03-29T12:19:02.365Z,61.27
2023-03-29T12:20:02.349Z,60.47
2023-03-29T12:21:02.323Z,61.07
2023-03-29T12:22:02.327Z,60.09
2023-03-29T12:23:02.356Z,59.44
2023-03-29T12:24:02.308Z,58.99
2023-03-29T12:25:02.303Z,60.35
2023-03-29T12:26:02.295Z,61.51
2023-03-29T12:27:02.288Z,59.95
2023-03-29T12:28:02.278Z,60.59
2023-03-29T12:29:02.283Z,60.30
2023-03-29T12:30:02.264Z,60.50
2023-03-29T12:31:02.431Z,62.24
2023-03-29T12:32:02.344Z,62.15
2023-03-29T12:33:02.287Z,59.60
2023-03-29T12:34:02.233Z,61.59
2023-03-29T12:35:02.233Z,60.00
2023-03-29T12:36:02.261Z,61.68
2023-03-29T12:37:02.228Z,61.28
2023-03-29T12:38:02.206Z,61.08
2023-03-29T12:39:02.217Z,60.00
2023-03-29T12:40:02.212Z,62.86
2023-03-29T12:41:02.378Z,61.81
2023-03-29T12:42:02.176Z,61.57
2023-03-29T12:43:02.160Z,61.89
2023-03-29T12:44:02.179Z,61.52
2023-03-29T12:45:02.164Z,63.05
2023-03-29T12:46:02.520Z,61.92
2023-03-29T12:47:02.143Z,62.66
2023-03-29T12:48:02.164Z,61.65
2023-03-29T12:49:02.129Z,61.58
2023-03-29T12:50:02.114Z,62.04
2023-03-29T12:51:02.145Z,62.15
2023-03-29T12:52:02.108Z,62.79